Аэропорт: Нижневартовск. Нижневартовск

ICAO: USNN

METAR:
2019/05/26 14:00
USNN 261400Z 27004MPS 9999 SCT023CB 03/00 Q1015 R21/0///65 NOSIG RMK QFE756
METAR:
2019/05/26 12:21
TAF USNN 261100Z 2612/2712 29007G14MPS 9999 BKN030CB 
      TEMPO 2612/2615 5000 -SHRASN BKN017 BKN020CB 
      BECMG 2617/2619 23006MPS